Time;durP1;ratioP1;P1;durP2;ratioP2;P2;SDS_P1;SDS_P2;PMS_P1;PMS_P2;Temp;Humidity;BMP_temperature;BMP_pressure;BME280_temperature;BME280_humidity;BME280_pressure;Samples;Min_cycle;Max_cycle;Signal;HPM_P1;HPM_P2
2021/06/07 00:01:12;;;;;;;9.18;7.78;;;;;;;19.00;82.10;100672.56;5054472;28;20052;-83
2021/06/07 00:04:16;;;;;;;9.48;7.15;;;;;;;19.08;81.57;100670.63;5055082;28;20064;-85
2021/06/07 00:07:21;;;;;;;9.57;8.32;;;;;;;19.09;81.70;100674.19;5054934;28;20063;-86
2021/06/07 00:10:25;;;;;;;8.25;7.32;;;;;;;19.16;81.41;100676.00;5054918;28;20048;-84
2021/06/07 00:13:30;;;;;;;9.15;7.50;;;;;;;19.23;81.55;100673.41;5055099;28;20056;-81
2021/06/07 00:16:35;;;;;;;10.13;7.10;;;;;;;19.31;81.56;100681.50;5054971;28;20480;-85
2021/06/07 00:19:41;;;;;;;7.50;6.70;;;;;;;19.42;80.92;100676.50;5054881;28;20052;-83
2021/06/07 00:22:45;;;;;;;7.50;6.75;;;;;;;19.54;80.70;100685.06;5054212;28;20055;-83
2021/06/07 00:25:52;;;;;;;8.48;7.60;;;;;;;19.59;80.40;100684.50;5055104;28;20055;-85
2021/06/07 00:28:57;;;;;;;9.35;7.82;;;;;;;19.58;80.30;100675.50;5053715;28;20060;-82
2021/06/07 00:32:01;;;;;;;9.73;7.57;;;;;;;19.52;80.39;100676.25;5054695;28;20056;-85
2021/06/07 00:35:06;;;;;;;9.43;7.60;;;;;;;19.53;80.51;100669.75;5054829;28;20063;-84
2021/06/07 00:38:10;;;;;;;9.93;7.45;;;;;;;19.54;80.18;100670.59;5054656;28;20056;-82
2021/06/07 00:41:16;;;;;;;9.02;7.85;;;;;;;19.42;80.11;100673.78;5054544;28;20048;-85
2021/06/07 00:44:22;;;;;;;11.85;8.13;;;;;;;19.36;80.07;100682.66;5054426;28;20076;-82
2021/06/07 00:47:27;;;;;;;11.88;9.00;;;;;;;19.41;80.11;100684.84;5053633;28;20048;-83
2021/06/07 00:50:40;;;;;;;10.95;9.85;;;;;;;19.41;79.30;100693.00;5054616;28;20064;-79
2021/06/07 00:53:44;;;;;;;11.32;9.57;;;;;;;19.21;80.10;100681.75;5053733;28;20064;-85
2021/06/07 00:56:48;;;;;;;11.18;10.18;;;;;;;19.04;81.11;100684.75;5054207;28;20059;-83
2021/06/07 00:59:53;;;;;;;12.68;10.35;;;;;;;18.88;81.72;100687.59;5053778;28;20041;-82
2021/06/07 01:02:58;;;;;;;12.20;10.02;;;;;;;18.97;82.29;100686.50;5054088;28;20045;-82
2021/06/07 01:06:04;;;;;;;12.25;9.43;;;;;;;19.08;81.13;100686.97;5053047;28;20064;-83
2021/06/07 01:09:09;;;;;;;11.55;9.65;;;;;;;19.09;81.62;100685.06;5053385;28;20052;-81
2021/06/07 01:12:13;;;;;;;9.50;8.50;;;;;;;19.22;81.40;100685.31;5052946;28;20048;-84
2021/06/07 01:15:18;;;;;;;11.82;9.45;;;;;;;19.32;80.88;100684.03;5053758;28;20494;-80
2021/06/07 01:18:24;;;;;;;10.75;9.63;;;;;;;19.41;80.54;100682.97;5053418;28;20059;-81
2021/06/07 01:21:29;;;;;;;10.68;9.57;;;;;;;19.47;79.95;100670.50;5053423;28;20051;-83
2021/06/07 01:24:33;;;;;;;10.75;9.65;;;;;;;19.51;79.97;100668.25;5053825;28;20392;-84
2021/06/07 01:27:38;;;;;;;11.15;9.98;;;;;;;19.56;79.65;100669.38;5053851;28;20056;-85
2021/06/07 01:30:46;;;;;;;11.75;10.02;;;;;;;19.57;79.70;100665.66;5053619;28;20060;-82
2021/06/07 01:33:52;;;;;;;11.98;10.00;;;;;;;19.57;79.62;100662.06;5053817;28;20049;-83
2021/06/07 01:36:56;;;;;;;11.90;10.70;;;;;;;19.58;79.72;100659.16;5053737;28;20049;-82
2021/06/07 01:40:07;;;;;;;12.73;10.75;;;;;;;19.57;79.64;100660.19;5012251;28;20045;-80
2021/06/07 01:43:12;;;;;;;12.82;10.38;;;;;;;19.56;79.40;100663.94;5012018;28;20046;-82
2021/06/07 01:46:17;;;;;;;12.43;10.45;;;;;;;19.51;80.04;100652.75;5011649;28;20473;-85
2021/06/07 01:49:21;;;;;;;12.70;11.00;;;;;;;19.45;80.08;100658.97;5012055;28;20041;-82
2021/06/07 01:52:32;;;;;;;14.65;11.55;;;;;;;19.45;80.42;100657.06;5012326;28;20037;-86
2021/06/07 01:55:48;;;;;;;21.48;12.25;;;;;;;19.33;80.54;100660.41;5000832;28;20057;-86
2021/06/07 01:58:52;;;;;;;18.50;11.93;;;;;;;19.31;81.02;100659.72;5011560;28;20046;-83
2021/06/07 02:01:57;;;;;;;18.88;13.50;;;;;;;19.16;81.53;100661.56;5000603;28;20042;-83
2021/06/07 02:05:04;;;;;;;19.65;12.77;;;;;;;19.18;82.26;100654.06;5012060;28;20478;-86
2021/06/07 02:08:10;;;;;;;19.35;12.32;;;;;;;19.27;81.65;100656.53;5011331;28;20050;-83
2021/06/07 02:11:23;;;;;;;17.73;12.18;;;;;;;19.32;81.43;100656.81;5011584;28;20042;-85
2021/06/07 02:14:27;;;;;;;17.37;12.77;;;;;;;19.28;81.57;100651.94;5011839;28;20034;-83
2021/06/07 02:17:32;;;;;;;15.00;12.68;;;;;;;19.30;81.18;100658.03;5043637;28;20271;-82
2021/06/07 02:20:38;;;;;;;13.07;11.73;;;;;;;19.26;81.52;100657.53;5052772;28;20037;-83
2021/06/07 02:23:42;;;;;;;16.13;13.15;;;;;;;19.21;81.54;100656.38;5053286;28;20431;-84
2021/06/07 02:26:47;;;;;;;14.77;12.57;;;;;;;19.20;82.12;100652.00;5052721;28;20041;-82
2021/06/07 02:29:52;;;;;;;14.60;12.65;;;;;;;19.26;82.09;100653.97;5053109;28;20044;-81
2021/06/07 02:33:00;;;;;;;14.82;13.50;;;;;;;19.19;82.28;100651.13;5054174;28;20037;-83
2021/06/07 02:36:05;;;;;;;14.43;12.85;;;;;;;19.17;82.12;100652.34;5057196;28;20045;-85
2021/06/07 02:39:12;;;;;;;13.98;12.60;;;;;;;19.12;82.25;100646.59;5056071;28;20045;-84
2021/06/07 02:42:16;;;;;;;14.40;13.02;;;;;;;19.12;82.45;100658.34;5056808;28;20045;-83
2021/06/07 02:45:21;;;;;;;13.90;12.50;;;;;;;19.13;82.75;100656.47;5056026;28;20045;-84
2021/06/07 02:48:25;;;;;;;16.00;14.32;;;;;;;19.13;82.73;100656.47;5056684;28;20045;-85
2021/06/07 02:51:30;;;;;;;13.90;12.10;;;;;;;19.14;82.81;100660.88;5056699;28;20045;-82
2021/06/07 02:54:34;;;;;;;15.55;13.82;;;;;;;19.13;82.74;100651.88;5055816;28;20048;-84
2021/06/07 02:57:39;;;;;;;14.45;12.13;;;;;;;19.16;82.50;100647.97;5056542;28;20045;-81
2021/06/07 03:00:47;;;;;;;15.18;12.57;;;;;;;19.16;82.57;100661.56;5056381;28;20045;-81
2021/06/07 03:03:52;;;;;;;14.88;12.05;;;;;;;19.22;82.12;100656.22;5056138;28;20392;-86
2021/06/07 03:06:56;;;;;;;14.48;12.57;;;;;;;19.24;82.05;100653.31;5055859;28;20037;-82
2021/06/07 03:10:00;;;;;;;18.65;12.13;;;;;;;19.26;81.97;100659.41;5036272;28;20037;-83
2021/06/07 03:13:05;;;;;;;13.82;12.13;;;;;;;19.32;82.26;100645.94;5036508;28;20053;-83
2021/06/07 03:16:10;;;;;;;14.38;12.55;;;;;;;19.27;82.21;100652.94;5036222;28;20045;-84
2021/06/07 03:19:14;;;;;;;13.48;11.45;;;;;;;19.17;82.55;100650.47;5036055;28;20037;-84
2021/06/07 03:22:21;;;;;;;16.83;12.63;;;;;;;19.09;82.82;100655.13;5055199;28;20045;-82
2021/06/07 03:25:26;;;;;;;15.65;11.45;;;;;;;19.09;82.96;100655.13;5055947;28;20404;-83
2021/06/07 03:28:31;;;;;;;14.10;10.70;;;;;;;19.13;82.85;100651.03;5055865;28;20037;-85
2021/06/07 03:31:35;;;;;;;11.85;10.10;;;;;;;19.12;82.96;100655.63;5055307;28;20373;-80
2021/06/07 03:34:40;;;;;;;15.00;9.95;;;;;;;19.16;83.05;100658.84;5055244;28;20048;-86
2021/06/07 03:37:44;;;;;;;13.35;10.20;;;;;;;19.24;82.86;100658.75;5056033;28;20487;-83
2021/06/07 03:40:55;;;;;;;13.10;9.82;;;;;;;19.31;82.42;100662.44;5055710;28;20396;-84
2021/06/07 03:43:59;;;;;;;11.82;10.13;;;;;;;19.23;82.53;100665.25;5055593;28;20048;-83
2021/06/07 03:47:04;;;;;;;10.93;9.88;;;;;;;19.25;82.72;100671.34;5054719;28;20045;-82
2021/06/07 03:50:09;;;;;;;12.93;9.63;;;;;;;19.28;82.40;100668.28;5055542;28;20060;-84
2021/06/07 03:53:14;;;;;;;11.23;9.40;;;;;;;19.33;82.17;100671.28;5055475;28;20496;-85
2021/06/07 03:56:19;;;;;;;13.25;9.75;;;;;;;19.38;82.14;100674.34;5054581;28;20052;-86
2021/06/07 03:59:23;;;;;;;14.45;10.02;;;;;;;19.44;81.76;100665.41;5055592;28;20480;-83
2021/06/07 04:02:31;;;;;;;12.15;9.55;;;;;;;19.43;81.71;100680.91;5055211;28;20384;-81
2021/06/07 04:05:37;;;;;;;11.98;9.10;;;;;;;19.46;81.62;100671.53;5054967;28;20056;-80
2021/06/07 04:08:42;;;;;;;10.82;9.32;;;;;;;19.55;81.28;100675.88;5054231;28;20052;-83
2021/06/07 04:11:49;;;;;;;16.48;9.75;;;;;;;19.69;80.79;100680.50;5055027;28;20056;-83
2021/06/07 04:14:53;;;;;;;14.48;10.20;;;;;;;19.76;80.36;100684.16;5054947;28;20056;-82
2021/06/07 04:17:58;;;;;;;13.90;10.43;;;;;;;19.85;80.31;100680.31;5054190;28;20041;-83
2021/06/07 04:21:03;;;;;;;11.63;9.50;;;;;;;20.07;79.86;100679.38;5054135;28;20393;-84
2021/06/07 04:24:08;;;;;;;12.43;9.25;;;;;;;20.28;78.97;100680.53;5054760;28;20072;-83
2021/06/07 04:27:13;;;;;;;11.73;8.73;;;;;;;20.47;77.62;100680.81;5054806;28;20044;-80
2021/06/07 04:30:20;;;;;;;11.98;8.43;;;;;;;20.67;76.67;100681.03;5053643;28;20396;-85
2021/06/07 04:33:24;;;;;;;12.90;8.98;;;;;;;20.69;75.66;100678.97;5050348;28;20056;-84
2021/06/07 04:36:29;;;;;;;13.20;8.75;;;;;;;20.70;75.35;100686.13;5036160;28;20044;-83
2021/06/07 04:39:33;;;;;;;14.27;8.93;;;;;;;20.90;74.99;100670.81;5046182;28;20051;-84
2021/06/07 04:42:39;;;;;;;15.00;8.07;;;;;;;21.01;74.13;100683.94;5054739;28;20052;-83
2021/06/07 04:45:46;;;;;;;13.20;8.07;;;;;;;21.12;73.85;100675.28;5041770;28;20060;-82
2021/06/07 04:48:50;;;;;;;11.63;7.72;;;;;;;21.09;73.02;100670.22;5033678;28;20049;-81
2021/06/07 04:51:55;;;;;;;12.73;6.95;;;;;;;21.20;73.13;100664.25;5034444;28;20380;-84
2021/06/07 04:54:59;;;;;;;10.07;6.68;;;;;;;21.24;71.96;100673.72;5034423;28;20060;-78
2021/06/07 04:58:12;;;;;;;15.77;7.22;;;;;;;21.25;71.97;100678.16;5033784;28;20060;-80
2021/06/07 05:01:16;;;;;;;9.10;6.53;;;;;;;21.38;72.03;100682.88;5034351;28;20056;-79
2021/06/07 05:04:21;;;;;;;12.20;7.82;;;;;;;21.51;71.15;100668.47;5034141;28;20080;-83
2021/06/07 05:07:25;;;;;;;13.82;6.80;;;;;;;21.74;70.41;100680.88;5033928;28;20048;-84
2021/06/07 05:10:29;;;;;;;7.28;5.80;;;;;;;22.13;69.30;100682.22;5034206;28;20052;-84
2021/06/07 05:13:34;;;;;;;15.23;5.90;;;;;;;22.44;67.82;100677.94;5034096;28;20068;-85
2021/06/07 05:16:38;;;;;;;12.48;5.45;;;;;;;22.71;66.43;100681.69;5034406;28;20056;-82
2021/06/07 05:19:42;;;;;;;9.63;5.25;;;;;;;22.58;66.43;100687.06;5034044;28;20052;-84
2021/06/07 05:22:48;;;;;;;15.00;5.55;;;;;;;22.57;65.75;100683.50;5034261;28;20056;-81
2021/06/07 05:25:52;;;;;;;11.30;5.25;;;;;;;22.52;65.51;100680.53;5034065;28;20061;-83
2021/06/07 05:28:56;;;;;;;12.98;5.63;;;;;;;22.65;65.44;100686.09;5033192;28;20484;-85
2021/06/07 05:32:01;;;;;;;12.13;6.68;;;;;;;22.72;65.72;100685.25;5033938;28;20068;-82
2021/06/07 05:35:08;;;;;;;20.40;7.05;;;;;;;22.79;65.67;100688.88;5033944;28;20061;-83
2021/06/07 05:38:13;;;;;;;12.40;7.25;;;;;;;23.04;65.12;100692.72;5033898;28;20068;-83
2021/06/07 05:41:17;;;;;;;10.35;7.10;;;;;;;23.57;63.93;100696.41;5033335;28;20052;-81
2021/06/07 05:44:21;;;;;;;13.07;6.82;;;;;;;23.88;62.60;100693.88;5033765;28;20064;-83
2021/06/07 05:47:26;;;;;;;15.25;7.60;;;;;;;24.00;62.24;100699.56;5033786;28;20484;-81
2021/06/07 05:50:34;;;;;;;12.65;7.88;;;;;;;23.95;63.49;100701.03;5033985;28;20048;-82
2021/06/07 05:53:38;;;;;;;12.32;6.72;;;;;;;23.88;63.30;100702.94;5033682;28;20048;-80
2021/06/07 05:56:42;;;;;;;15.27;8.55;;;;;;;23.74;63.80;100711.38;5032865;28;20048;-80
2021/06/07 05:59:47;;;;;;;11.02;7.88;;;;;;;23.67;64.16;100718.78;5033691;28;20049;-81
2021/06/07 06:02:51;;;;;;;14.90;11.27;;;;;;;23.50;65.22;100715.59;5044786;28;20056;-79
2021/06/07 06:05:55;;;;;;;14.52;9.90;;;;;;;23.33;65.68;100723.34;5053501;28;20472;-78
2021/06/07 06:09:00;;;;;;;15.25;9.60;;;;;;;23.16;66.61;100726.66;5055284;28;20048;-78
2021/06/07 06:12:05;;;;;;;17.17;9.32;;;;;;;23.14;67.18;100731.50;5054909;28;20052;-78
2021/06/07 06:15:11;;;;;;;15.82;10.15;;;;;;;23.32;66.53;100723.56;5057253;28;20056;-78
2021/06/07 06:18:16;;;;;;;13.63;9.13;;;;;;;23.53;65.93;100726.13;5054281;28;20033;-79
2021/06/07 06:21:25;;;;;;;13.35;9.40;;;;;;;23.87;64.58;100742.38;5036707;28;20056;-77
2021/06/07 06:24:30;;;;;;;14.60;9.68;;;;;;;23.65;65.41;100740.88;5036235;28;20542;-76
2021/06/07 06:27:35;;;;;;;12.82;9.77;;;;;;;23.53;66.23;100742.56;5037189;28;20400;-77
2021/06/07 06:30:40;;;;;;;18.08;10.40;;;;;;;23.73;65.41;100746.19;5036796;28;20151;-77
2021/06/07 06:33:44;;;;;;;15.23;9.98;;;;;;;23.85;65.12;100749.13;5037110;28;20046;-78
2021/06/07 06:36:49;;;;;;;12.68;10.80;;;;;;;24.13;63.79;100754.41;5036964;28;20053;-77
2021/06/07 06:39:53;;;;;;;20.05;11.05;;;;;;;24.32;63.25;100750.81;5036061;28;20054;-77
2021/06/07 06:46:44;;;;;;;19.02;9.98;;;;;;;24.56;62.64;100758.34;5220070;24;20418;-79
2021/06/07 06:49:48;;;;;;;22.75;11.30;;;;;;;24.75;61.25;100754.69;4790945;30;20058;-71
2021/06/07 06:52:53;;;;;;;13.40;9.63;;;;;;;26.05;57.95;100754.09;4791371;30;20059;-70
2021/06/07 06:55:57;;;;;;;15.60;10.07;;;;;;;27.55;53.94;100752.34;4791625;30;20070;-70
2021/06/07 06:59:03;;;;;;;16.35;10.07;;;;;;;29.56;48.36;100752.50;4791179;30;20499;-71
2021/06/07 07:02:07;;;;;;;15.25;8.95;;;;;;;30.29;46.13;100755.97;4791227;30;20051;-73
2021/06/07 07:05:12;;;;;;;13.48;8.50;;;;;;;30.12;46.27;100763.47;4790612;30;20058;-73
2021/06/07 07:08:19;;;;;;;12.43;8.35;;;;;;;32.59;40.30;100759.94;4791100;30;20077;-73
2021/06/07 07:11:24;;;;;;;11.85;7.72;;;;;;;32.73;40.07;100750.00;4790974;30;20387;-73
2021/06/07 07:14:28;;;;;;;12.02;7.90;;;;;;;31.37;42.50;100759.94;4790979;30;20134;-73
2021/06/07 07:17:33;;;;;;;9.20;7.20;;;;;;;33.06;39.55;100757.13;4790508;30;20062;-75
2021/06/07 07:20:39;;;;;;;10.45;7.47;;;;;;;36.64;33.15;100750.34;4789518;29;20074;-73
2021/06/07 07:23:43;;;;;;;11.50;6.50;;;;;;;37.77;31.20;100750.22;4790516;30;20072;-73
2021/06/07 07:26:48;;;;;;;9.38;5.45;;;;;;;39.41;29.09;100752.09;4769213;30;20054;-74
2021/06/07 07:29:54;;;;;;;10.43;4.75;;;;;;;41.17;26.70;100746.56;4790704;30;20422;-73
2021/06/07 07:32:59;;;;;;;8.27;5.07;;;;;;;40.92;26.84;100747.34;4790460;30;20407;-72
2021/06/07 07:36:11;;;;;;;10.77;5.13;;;;;;;36.71;31.42;100753.63;4790631;30;20063;-73
2021/06/07 07:39:15;;;;;;;;;;;;;;;35.77;33.74;100750.28;4779872;30;20510;-73
2021/06/07 07:42:19;;;;;;;10.55;5.10;;;;;;;39.49;28.44;100750.50;4790497;30;19921;-74
2021/06/07 07:45:28;;;;;;;8.27;4.70;;;;;;;41.31;25.39;100747.28;4790112;30;20054;-74
2021/06/07 07:48:32;;;;;;;9.85;4.55;;;;;;;42.19;24.30;100755.41;4790655;30;20054;-73
2021/06/07 07:51:36;;;;;;;6.93;3.80;;;;;;;44.47;22.87;100746.91;4790238;30;20054;-73
2021/06/07 07:54:41;;;;;;;8.05;4.10;;;;;;;41.94;24.57;100746.63;4790265;30;20054;-73
2021/06/07 07:57:46;;;;;;;8.98;4.30;;;;;;;40.74;25.86;100760.50;4790260;30;20071;-73
2021/06/07 08:00:52;;;;;;;8.40;3.90;;;;;;;39.21;28.19;100754.56;4790253;30;20050;-73
2021/06/07 08:03:56;;;;;;;10.65;5.00;;;;;;;40.26;26.63;100757.59;4790026;30;20051;-73
2021/06/07 08:07:00;;;;;;;7.82;5.30;;;;;;;41.02;26.35;100757.47;4790102;30;20545;-73
2021/06/07 08:10:07;;;;;;;9.68;5.40;;;;;;;39.89;27.28;100751.53;4790081;30;20051;-73
2021/06/07 08:13:11;;;;;;;9.80;5.25;;;;;;;38.55;29.45;100757.81;4779168;30;20411;-74
2021/06/07 08:16:15;;;;;;;7.45;5.97;;;;;;;34.67;33.96;100757.25;4789994;30;20054;-73
2021/06/07 08:19:20;;;;;;;7.95;6.50;;;;;;;33.48;36.36;100755.00;4789799;30;20078;-72
2021/06/07 08:22:25;;;;;;;8.52;5.38;;;;;;;33.34;36.64;100749.13;4789825;30;20058;-73
2021/06/07 08:25:29;;;;;;;9.95;5.43;;;;;;;32.31;38.79;100752.78;4789175;30;20078;-72
2021/06/07 08:28:33;;;;;;;9.25;4.50;;;;;;;32.64;38.73;100744.09;4778651;30;20054;-73
2021/06/07 08:31:38;;;;;;;11.00;7.95;;;;;;;32.12;39.48;100748.78;4789578;30;20063;-73
2021/06/07 08:34:43;;;;;;;13.85;8.18;;;;;;;31.76;40.68;100749.53;4789482;30;20062;-73
2021/06/07 08:37:48;;;;;;;15.82;8.68;;;;;;;31.01;41.69;100753.16;4789736;30;20062;-73
2021/06/07 08:40:53;;;;;;;9.75;6.55;;;;;;;30.79;42.44;100749.50;4789387;30;20058;-73
2021/06/07 08:43:58;;;;;;;7.97;6.38;;;;;;;30.40;42.91;100747.84;4778320;30;20059;-73
2021/06/07 08:47:02;;;;;;;10.15;6.55;;;;;;;30.25;43.57;100743.75;4788848;30;20065;-72
2021/06/07 08:50:09;;;;;;;8.25;7.38;;;;;;;30.58;42.53;100742.88;4789392;30;20502;-73
2021/06/07 08:53:13;;;;;;;10.25;6.40;;;;;;;30.89;42.31;100744.97;4778317;30;20399;-73
2021/06/07 08:56:18;;;;;;;10.25;7.50;;;;;;;30.23;43.24;100740.41;4789290;30;20058;-72
2021/06/07 08:59:22;;;;;;;11.57;6.53;;;;;;;30.52;42.77;100730.03;4789267;30;20058;-73
2021/06/07 09:02:35;;;;;;;11.05;6.20;;;;;;;30.48;43.02;100739.13;4789170;30;20062;-73
2021/06/07 09:05:40;;;;;;;;;;;;;;;29.81;44.42;100741.09;4789406;30;20058;-73
2021/06/07 09:08:44;;;;;;;8.30;5.93;;;;;;;29.88;43.21;100742.59;4789260;30;19921;-72
2021/06/07 09:11:57;;;;;;;8.32;5.20;;;;;;;30.42;43.05;100742.94;4789179;30;20502;-72
2021/06/07 09:15:03;;;;;;;8.23;4.55;;;;;;;30.71;41.76;100742.50;4788981;30;20058;-74
2021/06/07 09:18:13;;;;;;;8.35;5.13;;;;;;;30.81;41.87;100739.03;4767691;30;20054;-74
2021/06/07 09:21:23;;;;;;;10.05;6.20;;;;;;;29.35;44.60;100754.09;4789006;30;20054;-74
2021/06/07 09:24:27;;;;;;;13.68;7.20;;;;;;;27.91;48.32;100745.84;4777869;30;20063;-74
2021/06/07 09:27:33;;;;;;;8.40;5.60;;;;;;;27.94;48.35;100741.75;4788959;30;20058;-72
2021/06/07 09:30:56;;;;;;;8.02;5.50;;;;;;;27.80;48.53;100743.88;4778238;30;20058;-73
2021/06/07 09:34:04;;;;;;;;;;;;;;;27.62;48.49;100742.06;4778258;30;20054;-72
2021/06/07 09:37:13;;;;;;;8.32;6.43;;;;;;;28.22;47.87;100744.69;4788939;30;19925;-72
2021/06/07 09:40:20;;;;;;;12.52;7.30;;;;;;;28.21;47.98;100735.56;4788803;30;20054;-72
2021/06/07 09:43:24;;;;;;;13.85;8.35;;;;;;;27.89;49.62;100736.94;4768761;30;20050;-72
2021/06/07 09:46:31;;;;;;;12.20;8.82;;;;;;;27.58;51.01;100735.31;4791954;30;20058;-72
2021/06/07 09:49:41;;;;;;;12.00;6.10;;;;;;;27.89;50.47;100736.09;4792473;30;20058;-73
2021/06/07 09:52:48;;;;;;;7.85;5.70;;;;;;;27.99;50.27;100741.88;4792233;30;20058;-73
2021/06/07 09:56:02;;;;;;;13.93;6.82;;;;;;;27.67;50.86;100733.09;4792338;30;20407;-72
2021/06/07 09:59:23;;;;;;;7.75;6.35;;;;;;;27.37;50.78;100735.84;4792309;30;20054;-73
2021/06/07 10:02:35;;;;;;;12.15;8.15;;;;;;;27.05;51.48;100740.75;4792198;30;20069;-72
2021/06/07 10:05:39;;;;;;;12.47;7.57;;;;;;;27.30;51.43;100732.34;4781104;30;20126;-73
2021/06/07 10:08:46;;;;;;;9.85;6.15;;;;;;;28.00;49.69;100733.38;4790499;30;20783;-71
2021/06/07 10:11:52;;;;;;;8.52;5.18;;;;;;;28.67;47.96;100729.16;4792005;30;20070;-73
2021/06/07 10:14:57;;;;;;;7.70;5.13;;;;;;;29.15;46.28;100726.00;4780889;30;20494;-73
2021/06/07 10:18:13;;;;;;;5.07;3.92;;;;;;;29.68;45.40;100720.06;4791885;30;20051;-73
2021/06/07 10:21:18;;;;;;;11.20;5.20;;;;;;;29.74;44.67;100719.09;4791605;30;20074;-73
2021/06/07 10:24:23;;;;;;;9.70;5.07;;;;;;;29.28;45.66;100722.13;4791626;30;20078;-74
2021/06/07 10:27:27;;;;;;;9.48;4.97;;;;;;;28.85;46.71;100723.47;4791786;30;20487;-73
2021/06/07 10:30:38;;;;;;;6.35;4.57;;;;;;;28.82;47.13;100721.19;4791816;30;20490;-75
2021/06/07 10:34:03;;;;;;;5.60;4.50;;;;;;;28.73;46.57;100719.91;4790607;30;20054;-75
2021/06/07 10:37:08;;;;;;;8.80;4.00;;;;;;;28.71;46.96;100719.31;4789664;30;20058;-75
2021/06/07 10:40:15;;;;;;;9.07;4.85;;;;;;;28.30;47.79;100719.44;4790368;30;20062;-74
2021/06/07 10:43:20;;;;;;;5.00;3.70;;;;;;;28.34;48.31;100713.19;4790193;30;20522;-74
2021/06/07 10:46:39;;;;;;;8.13;3.85;;;;;;;28.20;48.69;100710.94;4790107;30;20138;-75
2021/06/07 10:49:58;;;;;;;8.32;3.85;;;;;;;28.20;48.19;100702.66;4791092;30;20509;-73
2021/06/07 10:53:06;;;;;;;9.00;4.72;;;;;;;27.84;48.79;100713.91;4791410;30;20490;-73
2021/06/07 10:56:10;;;;;;;6.15;3.95;;;;;;;27.84;47.81;100711.16;4790260;30;20391;-73
2021/06/07 10:59:15;;;;;;;8.07;4.15;;;;;;;28.07;46.48;100703.72;4791175;30;20058;-73
2021/06/07 11:02:21;;;;;;;9.73;3.40;;;;;;;27.90;47.99;100704.69;4791182;30;20429;-73
2021/06/07 11:05:33;;;;;;;6.93;4.03;;;;;;;28.09;47.74;100695.22;4790937;30;20058;-74
2021/06/07 11:08:38;;;;;;;7.20;4.27;;;;;;;27.66;49.51;100687.25;4791042;30;20071;-73
2021/06/07 11:11:45;;;;;;;6.65;4.85;;;;;;;27.75;48.91;100683.91;4790957;30;20059;-72
2021/06/07 11:15:21;;;;;;;9.95;5.80;;;;;;;27.76;50.44;100695.78;4779221;30;20062;-73
2021/06/07 11:18:32;;;;;;;11.02;5.75;;;;;;;27.11;50.58;100683.84;4788721;30;20422;-73
2021/06/07 11:21:43;;;;;;;17.00;6.57;;;;;;;26.73;52.49;100680.53;4788402;30;20075;-75
2021/06/07 11:24:48;;;;;;;15.57;7.60;;;;;;;27.05;52.44;100682.03;4788392;30;20082;-74
2021/06/07 11:27:53;;;;;;;10.45;7.00;;;;;;;27.18;52.07;100672.75;4788333;30;20538;-74
2021/06/07 11:30:59;;;;;;;10.00;6.00;;;;;;;27.14;50.19;100661.31;4788490;30;20058;-73
2021/06/07 11:34:12;;;;;;;7.05;5.20;;;;;;;27.12;50.59;100663.50;4790045;30;20058;-76
2021/06/07 11:37:33;;;;;;;;;;;;;;;27.10;49.98;100660.13;4791220;30;20400;-76
2021/06/07 11:40:39;;;;;;;10.88;5.45;;;;;;;27.22;50.73;100658.25;4790380;30;19922;-78
2021/06/07 11:43:46;;;;;;;9.68;5.50;;;;;;;27.43;50.38;100651.38;4790525;30;20066;-74
2021/06/07 11:46:51;;;;;;;11.15;7.20;;;;;;;27.38;49.85;100653.97;4789884;30;20506;-71
2021/06/07 11:49:58;;;;;;;8.32;6.63;;;;;;;27.45;50.22;100647.31;4790466;30;20063;-74
2021/06/07 11:53:30;;;;;;;8.43;7.28;;;;;;;27.53;50.32;100641.41;4790398;30;20054;-74
2021/06/07 11:56:37;;;;;;;8.43;7.20;;;;;;;27.65;49.84;100634.00;4790281;30;20050;-74
2021/06/07 11:59:42;;;;;;;10.35;6.43;;;;;;;27.67;50.21;100631.84;4790434;30;20337;-73
2021/06/07 12:02:46;;;;;;;17.40;7.72;;;;;;;27.94;49.17;100625.84;4790351;30;20506;-75
2021/06/07 12:05:52;;;;;;;8.93;6.35;;;;;;;27.58;50.23;100629.66;4789692;29;20058;-74
2021/06/07 12:09:05;;;;;;;9.68;5.68;;;;;;;27.42;47.94;100630.38;4789698;30;20268;-74
2021/06/07 12:12:10;;;;;;;9.82;6.00;;;;;;;27.41;49.88;100631.44;4789795;30;20058;-77
2021/06/07 12:15:17;;;;;;;8.27;6.03;;;;;;;27.29;50.89;100625.03;4789966;30;20054;-74
2021/06/07 12:18:32;;;;;;;10.38;5.43;;;;;;;27.50;49.99;100625.38;4789907;30;20134;-74
2021/06/07 12:21:36;;;;;;;9.40;5.38;;;;;;;27.31;49.72;100611.84;4778796;30;20095;-74
2021/06/07 12:24:54;;;;;;;7.40;5.72;;;;;;;27.16;48.57;100619.78;4789980;30;20099;-73
2021/06/07 12:28:19;;;;;;;10.10;4.88;;;;;;;27.02;48.72;100617.22;4789764;30;20058;-75
2021/06/07 12:31:24;;;;;;;11.85;5.22;;;;;;;26.73;49.25;100608.94;4789702;30;20068;-76
2021/06/07 12:34:28;;;;;;;8.27;4.35;;;;;;;27.01;48.06;100610.00;4789482;30;20061;-74
2021/06/07 12:37:34;;;;;;;6.95;4.63;;;;;;;27.11;48.00;100607.50;4789393;30;20070;-72
2021/06/07 12:40:43;;;;;;;6.05;3.35;;;;;;;27.10;45.72;100610.53;4789566;30;20082;-75
2021/06/07 12:43:50;;;;;;;6.80;3.15;;;;;;;27.17;44.88;100616.75;4778135;30;20506;-74
2021/06/07 12:46:56;;;;;;;5.15;3.05;;;;;;;27.40;45.06;100611.34;4788927;30;20066;-75
2021/06/07 12:50:12;;;;;;;10.20;3.55;;;;;;;27.54;44.97;100607.25;4789388;30;20058;-74
2021/06/07 12:53:17;;;;;;;4.22;2.75;;;;;;;27.65;45.09;100605.59;4778034;30;20054;-75
2021/06/07 12:56:24;;;;;;;5.78;2.30;;;;;;;27.98;43.95;100599.44;4789274;30;20054;-72
2021/06/07 12:59:30;;;;;;;8.88;3.58;;;;;;;27.81;44.06;100596.56;4788895;30;20054;-75
2021/06/07 13:02:35;;;;;;;8.55;2.50;;;;;;;27.96;43.51;100590.56;4789174;30;20051;-75
2021/06/07 13:05:39;;;;;;;4.47;2.25;;;;;;;27.99;42.72;100603.88;4777912;30;20055;-74
2021/06/07 13:08:54;;;;;;;5.10;2.08;;;;;;;27.87;42.70;100594.78;4789064;30;20054;-73
2021/06/07 13:11:59;;;;;;;6.18;2.28;;;;;;;28.27;42.67;100585.47;4789311;30;20046;-75
2021/06/07 13:15:05;;;;;;;5.13;2.47;;;;;;;28.17;41.83;100587.19;4789336;30;20058;-75
2021/06/07 13:18:10;;;;;;;4.88;2.20;;;;;;;28.45;41.50;100591.91;4788304;30;20121;-74
2021/06/07 13:21:14;;;;;;;5.15;2.85;;;;;;;28.55;42.74;100581.06;4788915;30;20498;-80
2021/06/07 13:24:18;;;;;;;10.40;3.22;;;;;;;28.60;43.90;100581.16;4788913;30;20063;-75
2021/06/07 13:27:31;;;;;;;7.70;3.67;;;;;;;27.98;45.25;100580.09;4777823;30;20046;-80
2021/06/07 13:30:35;;;;;;;;;;;;;;;27.86;43.39;100588.41;4789310;30;20058;-75
2021/06/07 13:33:40;;;;;;;4.97;2.63;;;;;;;27.98;43.62;100586.47;4788899;30;20354;-74
2021/06/07 13:36:45;;;;;;;7.95;3.65;;;;;;;27.99;45.22;100590.91;4788797;30;20054;-74
2021/06/07 13:40:23;;;;;;;11.07;3.97;;;;;;;28.34;46.50;100590.88;4788515;30;20054;-78
2021/06/07 13:43:28;;;;;;;16.70;5.32;;;;;;;28.24;47.07;100585.13;4768990;30;20497;-72
2021/06/07 13:46:33;;;;;;;7.68;5.25;;;;;;;27.71;48.34;100586.16;4768345;30;20183;-73
2021/06/07 13:49:37;;;;;;;13.85;5.13;;;;;;;27.60;49.96;100589.72;4758598;30;20055;-74
2021/06/07 13:52:50;;;;;;;13.02;5.18;;;;;;;27.28;50.37;100588.34;4758671;30;20050;-75
2021/06/07 13:55:56;;;;;;;7.80;5.32;;;;;;;27.46;49.28;100582.78;4768776;30;20443;-74
2021/06/07 13:59:00;;;;;;;8.82;5.00;;;;;;;27.17;50.66;100578.16;4768785;30;20059;-80
2021/06/07 14:02:04;;;;;;;8.07;4.70;;;;;;;27.01;50.88;100590.72;4768464;30;20202;-74
2021/06/07 14:05:09;;;;;;;8.02;4.70;;;;;;;26.84;50.98;100589.72;4768656;30;20059;-80
2021/06/07 14:08:21;;;;;;;6.38;4.32;;;;;;;26.55;50.78;100585.03;4768752;30;20063;-75
2021/06/07 14:11:27;;;;;;;7.15;4.70;;;;;;;26.53;52.02;100591.84;4768744;30;20435;-80
2021/06/07 14:14:31;;;;;;;5.22;3.47;;;;;;;26.03;54.32;100594.75;4768442;30;20100;-73
2021/06/07 14:17:50;;;;;;;7.57;2.70;;;;;;;25.83;55.27;100603.22;4768857;30;20059;-73
2021/06/07 14:20:59;;;;;;;7.25;3.55;;;;;;;25.25;57.03;100590.88;4788447;30;20050;-73
2021/06/07 14:27:28;;;;;;;13.50;3.83;;;;;;;24.46;61.44;100593.28;4788441;30;20062;-73